createdAt,value
2022-09-24T00:02:06.209Z,10.57
2022-09-24T00:04:36.300Z,9.15
2022-09-24T00:07:04.670Z,9.88
2022-09-24T00:09:32.584Z,9.55
2022-09-24T00:12:00.663Z,8.73
2022-09-24T00:14:29.979Z,10.40
2022-09-24T00:16:57.941Z,9.50
2022-09-24T00:19:26.069Z,9.85
2022-09-24T00:21:54.004Z,10.25
2022-09-24T00:24:42.295Z,9.98
2022-09-24T00:27:10.736Z,10.18
2022-09-24T00:29:40.085Z,10.27
2022-09-24T00:32:13.531Z,10.32
2022-09-24T00:34:41.482Z,9.25
2022-09-24T00:37:11.079Z,9.75
2022-09-24T00:39:39.766Z,10.63
2022-09-24T00:42:07.725Z,10.00
2022-09-24T00:44:55.158Z,9.90
2022-09-24T00:47:36.718Z,10.25
2022-09-24T00:50:20.367Z,9.63
2022-09-24T00:52:55.452Z,10.63
2022-09-24T00:55:24.951Z,9.57
2022-09-24T00:57:57.181Z,8.90
2022-09-24T01:00:28.015Z,9.63
2022-09-24T01:03:00.956Z,11.52
2022-09-24T01:05:31.151Z,9.55
2022-09-24T01:07:59.176Z,9.60
2022-09-24T01:10:51.071Z,9.35
2022-09-24T01:13:43.353Z,10.45
2022-09-24T01:16:23.467Z,10.70
2022-09-24T01:19:02.538Z,10.27
2022-09-24T01:21:39.771Z,12.98
2022-09-24T01:24:38.580Z,10.43
2022-09-24T01:27:14.137Z,11.00
2022-09-24T01:29:54.394Z,11.35
2022-09-24T01:32:32.155Z,11.82
2022-09-24T01:35:04.337Z,12.50
2022-09-24T01:37:37.956Z,11.82
2022-09-24T01:40:08.614Z,12.27
2022-09-24T01:42:39.220Z,11.05
2022-09-24T01:45:10.437Z,11.98
2022-09-24T01:47:43.077Z,11.70
2022-09-24T01:50:14.106Z,12.85
2022-09-24T01:52:46.982Z,10.98
2022-09-24T01:55:18.702Z,11.95
2022-09-24T01:57:50.782Z,12.20
2022-09-24T02:00:22.250Z,11.73
2022-09-24T02:02:58.259Z,11.43
2022-09-24T02:05:33.042Z,10.57
2022-09-24T02:08:08.841Z,12.13
2022-09-24T02:10:42.300Z,12.82
2022-09-24T02:13:14.051Z,12.40
2022-09-24T02:15:46.733Z,12.32
2022-09-24T02:18:21.499Z,12.65
2022-09-24T02:20:52.341Z,12.05
2022-09-24T02:23:21.449Z,12.95
2022-09-24T02:25:57.884Z,12.30
2022-09-24T02:28:26.931Z,12.43
2022-09-24T02:31:01.843Z,14.00
2022-09-24T02:33:50.297Z,13.52
2022-09-24T02:36:18.614Z,13.07
2022-09-24T02:38:47.257Z,13.10
2022-09-24T02:41:16.250Z,12.80
2022-09-24T02:43:47.445Z,13.13
2022-09-24T02:46:16.903Z,11.88
2022-09-24T02:48:44.841Z,13.50
2022-09-24T02:51:12.814Z,13.98
2022-09-24T02:53:41.256Z,13.90
2022-09-24T02:56:09.476Z,13.70
2022-09-24T02:58:37.593Z,14.00
2022-09-24T03:01:07.050Z,13.73
2022-09-24T03:03:36.503Z,15.00
2022-09-24T03:06:04.736Z,14.05
2022-09-24T03:08:33.196Z,13.98
2022-09-24T03:11:01.161Z,12.60
2022-09-24T03:13:29.169Z,14.00
2022-09-24T03:15:57.788Z,13.05
2022-09-24T03:18:25.814Z,14.77
2022-09-24T03:21:02.349Z,15.13
2022-09-24T03:23:30.324Z,13.23
2022-09-24T03:25:59.086Z,16.05
2022-09-24T03:28:27.897Z,15.13
2022-09-24T03:31:01.135Z,14.05
2022-09-24T03:33:31.285Z,14.80
2022-09-24T03:36:03.927Z,15.00
2022-09-24T03:38:32.189Z,13.52
2022-09-24T03:41:01.142Z,12.95
2022-09-24T03:43:29.746Z,14.13
2022-09-24T03:45:58.445Z,15.80
2022-09-24T03:48:28.495Z,15.45
2022-09-24T03:50:56.476Z,17.55
2022-09-24T03:53:25.893Z,16.33
2022-09-24T03:55:58.072Z,16.88
2022-09-24T03:58:26.820Z,15.70
2022-09-24T04:00:55.511Z,19.05
2022-09-24T04:03:24.049Z,17.90
2022-09-24T04:05:52.717Z,17.50
2022-09-24T04:08:21.047Z,15.52
2022-09-24T04:10:51.636Z,19.23
2022-09-24T04:13:21.275Z,20.23
2022-09-24T04:15:50.293Z,19.48
2022-09-24T04:18:19.925Z,19.55
2022-09-24T04:20:48.799Z,19.85
2022-09-24T04:23:16.786Z,19.85
2022-09-24T04:25:45.270Z,21.20
2022-09-24T04:28:14.684Z,20.75
2022-09-24T04:30:48.765Z,20.17
2022-09-24T04:33:17.070Z,22.40
2022-09-24T04:35:49.317Z,21.20
2022-09-24T04:38:18.692Z,21.85
2022-09-24T04:40:47.479Z,23.35
2022-09-24T04:43:19.257Z,22.50
2022-09-24T04:45:49.294Z,22.45
2022-09-24T04:48:17.239Z,23.05
2022-09-24T04:50:46.435Z,24.83
2022-09-24T04:53:14.707Z,22.98
2022-09-24T04:55:42.781Z,23.45
2022-09-24T04:58:11.321Z,22.50
2022-09-24T05:00:41.606Z,22.98
2022-09-24T05:03:09.736Z,23.33
2022-09-24T05:05:45.197Z,25.83
2022-09-24T05:08:13.371Z,23.23
2022-09-24T05:10:43.613Z,23.27
2022-09-24T05:13:11.549Z,24.15
2022-09-24T05:15:43.135Z,23.92
2022-09-24T05:18:11.588Z,23.52
2022-09-24T05:20:39.526Z,23.55
2022-09-24T05:23:08.912Z,26.17
2022-09-24T05:25:57.236Z,27.63
2022-09-24T05:28:24.359Z,23.85
2022-09-24T05:30:58.491Z,23.58
2022-09-24T05:33:26.534Z,27.05
2022-09-24T05:35:55.304Z,25.30
2022-09-24T05:38:23.732Z,25.60
2022-09-24T05:40:51.945Z,24.35
2022-09-24T05:43:20.315Z,24.67
2022-09-24T05:45:49.077Z,25.73
2022-09-24T05:48:19.704Z,25.27
2022-09-24T05:50:47.741Z,26.27
2022-09-24T05:53:15.992Z,26.95
2022-09-24T05:55:44.189Z,25.27
2022-09-24T05:58:12.624Z,25.48
2022-09-24T06:00:43.038Z,24.90
2022-09-24T06:03:13.765Z,25.77
2022-09-24T06:05:47.928Z,25.58
2022-09-24T06:08:16.862Z,27.58
2022-09-24T06:10:47.308Z,26.00
2022-09-24T06:13:17.997Z,28.42
2022-09-24T06:15:48.352Z,25.50
2022-09-24T06:18:16.430Z,26.88
2022-09-24T06:20:49.366Z,26.17
2022-09-24T06:23:17.386Z,25.60
2022-09-24T06:25:50.038Z,26.85
2022-09-24T06:28:18.079Z,27.50
2022-09-24T06:30:46.120Z,26.48
2022-09-24T06:33:15.617Z,27.90
2022-09-24T06:35:45.739Z,28.33
2022-09-24T06:38:22.124Z,27.90
2022-09-24T06:40:50.138Z,27.58
2022-09-24T06:43:24.494Z,28.67
2022-09-24T06:45:55.388Z,26.42
2022-09-24T06:48:23.473Z,27.52
2022-09-24T06:50:53.400Z,25.63
2022-09-24T06:53:24.207Z,27.10
2022-09-24T06:55:53.346Z,28.80
2022-09-24T06:58:22.009Z,29.00
2022-09-24T07:00:54.342Z,29.30
2022-09-24T07:03:23.076Z,28.77
2022-09-24T07:05:52.984Z,26.40
2022-09-24T07:08:20.976Z,28.23
2022-09-24T07:10:50.277Z,30.52
2022-09-24T07:13:18.396Z,26.92
2022-09-24T07:15:46.747Z,28.42
2022-09-24T07:18:15.115Z,26.88
2022-09-24T07:20:43.517Z,25.90
2022-09-24T07:23:17.308Z,27.43
2022-09-24T07:25:45.917Z,26.08
2022-09-24T07:28:15.729Z,29.10
2022-09-24T07:30:44.123Z,26.02
2022-09-24T07:33:12.233Z,26.50
2022-09-24T07:35:42.473Z,23.13
2022-09-24T07:38:13.992Z,24.75
2022-09-24T07:40:42.501Z,24.60
2022-09-24T07:43:13.643Z,22.77
2022-09-24T07:45:43.272Z,24.25
2022-09-24T07:48:12.815Z,22.33
2022-09-24T07:50:42.958Z,22.55
2022-09-24T07:53:13.966Z,23.08
2022-09-24T07:55:42.035Z,21.20
2022-09-24T07:58:13.813Z,21.50
2022-09-24T08:00:42.239Z,25.10
2022-09-24T08:03:10.794Z,22.58
2022-09-24T08:05:45.152Z,22.50
2022-09-24T08:08:15.978Z,22.52
2022-09-24T08:10:44.371Z,23.05
2022-09-24T08:13:12.553Z,22.17
2022-09-24T08:15:41.030Z,21.35
2022-09-24T08:18:09.692Z,21.77
2022-09-24T08:20:39.112Z,21.45
2022-09-24T08:23:10.578Z,22.83
2022-09-24T08:25:40.073Z,22.10
2022-09-24T08:28:11.229Z,23.58
2022-09-24T08:30:41.042Z,21.10
2022-09-24T08:33:11.747Z,21.27
2022-09-24T08:35:40.651Z,21.30
2022-09-24T08:38:09.862Z,22.58
2022-09-24T08:40:44.257Z,20.27
2022-09-24T08:43:27.105Z,24.23
2022-09-24T08:46:18.197Z,19.85
2022-09-24T08:48:51.497Z,20.15
2022-09-24T08:51:21.880Z,20.10
2022-09-24T08:53:58.513Z,18.63
2022-09-24T08:56:31.393Z,19.05
2022-09-24T08:59:01.585Z,18.35
2022-09-24T09:01:39.832Z,18.02
2022-09-24T09:04:23.578Z,18.73
2022-09-24T09:07:02.389Z,18.98
2022-09-24T09:09:41.934Z,19.45
2022-09-24T09:12:16.255Z,20.73
2022-09-24T09:14:49.899Z,20.60
2022-09-24T09:17:28.799Z,23.17
2022-09-24T09:19:59.325Z,22.25
2022-09-24T09:22:32.003Z,20.85
2022-09-24T09:25:06.628Z,23.05
2022-09-24T09:27:36.084Z,27.58
2022-09-24T09:30:13.904Z,25.45
2022-09-24T09:33:05.230Z,27.15
2022-09-24T09:35:43.324Z,25.25
2022-09-24T09:38:19.889Z,27.55
2022-09-24T09:40:57.271Z,25.05
2022-09-24T09:43:27.924Z,29.10
2022-09-24T09:46:08.781Z,27.98
2022-09-24T09:48:45.453Z,28.50
2022-09-24T09:51:22.570Z,27.20
2022-09-24T09:53:57.674Z,29.00
2022-09-24T09:56:28.741Z,25.42
2022-09-24T09:59:08.105Z,29.70
2022-09-24T10:01:40.598Z,27.40
2022-09-24T10:04:27.210Z,26.67
2022-09-24T10:07:05.016Z,26.45
2022-09-24T10:09:33.421Z,27.05
2022-09-24T10:12:09.476Z,25.80
2022-09-24T10:14:39.029Z,27.30
2022-09-24T10:17:07.403Z,26.60
2022-09-24T10:19:39.155Z,27.92
2022-09-24T10:22:15.141Z,26.88
2022-09-24T10:24:44.999Z,26.95
2022-09-24T10:27:14.233Z,26.70
2022-09-24T10:30:01.632Z,26.10
2022-09-24T10:32:30.568Z,26.20
2022-09-24T10:34:59.695Z,25.08
2022-09-24T10:37:28.681Z,25.50
2022-09-24T10:40:00.373Z,26.33
2022-09-24T10:42:30.013Z,25.35
2022-09-24T10:45:03.491Z,25.75
2022-09-24T10:47:41.059Z,26.08
2022-09-24T10:50:26.675Z,26.67
2022-09-24T10:52:57.703Z,25.30
2022-09-24T10:55:40.797Z,24.02
2022-09-24T10:58:22.909Z,23.80
2022-09-24T11:01:12.208Z,23.58
2022-09-24T11:04:00.559Z,21.00
2022-09-24T11:06:44.412Z,21.55
2022-09-24T11:09:22.208Z,21.95
2022-09-24T11:12:01.285Z,21.98
2022-09-24T11:14:53.521Z,20.00
2022-09-24T11:17:39.456Z,19.27
2022-09-24T11:20:27.240Z,20.48
2022-09-24T11:23:22.726Z,19.45
2022-09-24T11:25:57.528Z,20.50
2022-09-24T11:28:49.324Z,20.50
2022-09-24T11:31:26.905Z,19.90
2022-09-24T11:34:19.269Z,18.45
2022-09-24T11:37:06.312Z,18.48
2022-09-24T11:39:46.499Z,18.70
2022-09-24T11:42:23.359Z,18.60
2022-09-24T11:45:02.591Z,21.05
2022-09-24T11:47:54.387Z,20.88
2022-09-24T11:50:42.523Z,19.52
2022-09-24T11:53:21.148Z,18.73
2022-09-24T11:55:53.328Z,18.63
2022-09-24T11:58:29.290Z,19.45
2022-09-24T12:01:01.409Z,19.02
2022-09-24T12:03:37.997Z,20.42
2022-09-24T12:06:10.365Z,19.23
2022-09-24T12:08:43.649Z,18.17
2022-09-24T12:11:18.542Z,18.83
2022-09-24T12:13:49.778Z,18.63
2022-09-24T12:16:22.755Z,18.50
2022-09-24T12:18:57.081Z,18.25
2022-09-24T12:21:30.852Z,17.77
2022-09-24T12:24:05.221Z,16.80
2022-09-24T12:26:38.673Z,17.50
2022-09-24T12:29:48.971Z,17.67
2022-09-24T12:32:41.531Z,16.42
2022-09-24T12:35:16.714Z,18.33
2022-09-24T12:37:50.177Z,17.00
2022-09-24T12:40:43.408Z,16.42
2022-09-24T12:43:20.253Z,18.05
2022-09-24T12:45:48.518Z,16.23
2022-09-24T12:48:17.530Z,14.93
2022-09-24T12:50:58.089Z,17.42
2022-09-24T12:53:34.714Z,14.57
2022-09-24T12:56:04.783Z,19.80
2022-09-24T12:58:39.184Z,19.33
2022-09-24T13:01:12.892Z,19.50
2022-09-24T13:03:46.877Z,18.50
2022-09-24T13:06:31.502Z,18.52
2022-09-24T13:09:01.569Z,15.63
2022-09-24T13:11:32.821Z,16.00
2022-09-24T13:14:05.694Z,16.85
2022-09-24T13:16:40.172Z,16.17
2022-09-24T13:19:25.312Z,17.48
2022-09-24T13:21:59.299Z,16.55
2022-09-24T13:24:30.943Z,17.67
2022-09-24T13:27:21.976Z,16.73
2022-09-24T13:30:01.594Z,17.00
2022-09-24T13:32:32.588Z,16.98
2022-09-24T13:35:04.726Z,16.13
2022-09-24T13:37:38.279Z,15.25
2022-09-24T13:40:19.023Z,16.35
2022-09-24T13:42:52.692Z,15.35
2022-09-24T13:45:23.581Z,15.05
2022-09-24T13:47:56.053Z,15.88
2022-09-24T13:50:26.981Z,15.40
2022-09-24T13:52:58.836Z,15.07
2022-09-24T13:55:33.093Z,14.30
2022-09-24T13:58:01.491Z,14.70
2022-09-24T14:00:32.180Z,14.15
2022-09-24T14:03:03.300Z,13.02
2022-09-24T14:05:35.050Z,14.52
2022-09-24T14:08:07.658Z,13.55
2022-09-24T14:10:37.991Z,14.10
2022-09-24T14:13:19.243Z,13.88
2022-09-24T14:15:55.895Z,13.40
2022-09-24T14:18:25.799Z,14.95
2022-09-24T14:20:58.637Z,13.98
2022-09-24T14:23:31.675Z,13.23
2022-09-24T14:26:02.529Z,13.65
2022-09-24T14:28:33.084Z,13.95
2022-09-24T14:31:02.914Z,15.38
2022-09-24T14:33:34.338Z,14.30
2022-09-24T14:36:04.586Z,13.77
2022-09-24T14:38:36.529Z,14.18
2022-09-24T14:41:14.965Z,14.90
2022-09-24T14:43:47.793Z,13.38
2022-09-24T14:46:19.917Z,14.65
2022-09-24T14:48:48.144Z,13.57
2022-09-24T14:51:25.874Z,12.77
2022-09-24T14:53:59.398Z,14.15
2022-09-24T14:56:31.284Z,14.18
2022-09-24T14:59:00.299Z,15.07
2022-09-24T15:01:32.743Z,14.93
2022-09-24T15:04:03.993Z,14.30
2022-09-24T15:06:33.792Z,13.85
2022-09-24T15:09:04.795Z,13.95
2022-09-24T15:11:36.461Z,14.70
2022-09-24T15:14:15.023Z,13.93
2022-09-24T15:16:44.298Z,14.48
2022-09-24T15:19:19.933Z,13.32
2022-09-24T15:21:49.634Z,12.57
2022-09-24T15:24:17.740Z,12.02
2022-09-24T15:26:49.932Z,11.77
2022-09-24T15:29:24.216Z,11.23
2022-09-24T15:31:52.522Z,11.40
2022-09-24T15:34:20.707Z,10.93
2022-09-24T15:36:49.479Z,10.60
2022-09-24T15:39:19.795Z,9.48
2022-09-24T15:41:49.195Z,9.77
2022-09-24T15:44:22.585Z,8.65
2022-09-24T15:46:52.017Z,7.75
2022-09-24T15:49:22.024Z,8.00
2022-09-24T15:51:52.172Z,7.60
2022-09-24T15:54:21.634Z,8.77
2022-09-24T15:56:52.506Z,7.38
2022-09-24T15:59:21.712Z,7.68
2022-09-24T16:01:52.435Z,4.88
2022-09-24T16:04:20.598Z,3.20
2022-09-24T16:06:49.963Z,3.90
2022-09-24T16:09:18.116Z,2.92
2022-09-24T16:11:46.796Z,1.98
2022-09-24T16:14:16.144Z,1.92
2022-09-24T16:16:44.199Z,1.50
2022-09-24T16:19:14.317Z,2.40
2022-09-24T16:21:42.285Z,1.33
2022-09-24T16:24:10.383Z,0.95
2022-09-24T16:26:38.579Z,1.40
2022-09-24T16:29:09.842Z,1.25
2022-09-24T16:31:42.250Z,1.30
2022-09-24T16:34:11.371Z,1.30
2022-09-24T16:36:41.939Z,1.63
2022-09-24T16:39:10.507Z,1.98
2022-09-24T16:41:38.733Z,1.58
2022-09-24T16:44:06.931Z,1.33
2022-09-24T16:46:35.524Z,1.23
2022-09-24T16:49:05.162Z,1.33
2022-09-24T16:51:33.202Z,1.70
2022-09-24T16:54:01.511Z,2.05
2022-09-24T16:56:29.950Z,1.58
2022-09-24T16:58:57.984Z,1.70
2022-09-24T17:01:27.774Z,1.80
2022-09-24T17:03:57.332Z,1.80
2022-09-24T17:06:28.745Z,1.77
2022-09-24T17:09:15.160Z,2.00
2022-09-24T17:11:43.776Z,2.10
2022-09-24T17:14:12.573Z,1.90
2022-09-24T17:16:44.558Z,2.15
2022-09-24T17:19:13.475Z,2.50
2022-09-24T17:21:46.117Z,2.05
2022-09-24T17:24:17.834Z,1.90
2022-09-24T17:26:49.528Z,3.63
2022-09-24T17:29:22.167Z,3.00
2022-09-24T17:31:50.334Z,2.50
2022-09-24T17:34:18.708Z,8.40
2022-09-24T17:36:48.078Z,17.45
2022-09-24T17:39:16.578Z,2.88
2022-09-24T17:41:44.657Z,8.82
2022-09-24T17:44:13.418Z,4.90
2022-09-24T17:46:41.563Z,10.35
2022-09-24T17:49:10.867Z,4.57
2022-09-24T17:51:39.248Z,8.30
2022-09-24T17:54:10.527Z,4.28
2022-09-24T17:56:41.439Z,4.40
2022-09-24T17:59:10.882Z,2.63
2022-09-24T18:01:40.038Z,3.13
2022-09-24T18:04:11.608Z,4.32
2022-09-24T18:06:41.362Z,5.03
2022-09-24T18:09:12.974Z,6.65
2022-09-24T18:11:42.982Z,6.28
2022-09-24T18:14:14.645Z,4.68
2022-09-24T18:16:46.174Z,4.63
2022-09-24T18:19:17.178Z,5.22
2022-09-24T18:21:45.843Z,7.22
2022-09-24T18:24:16.797Z,7.25
2022-09-24T18:26:51.259Z,9.13
2022-09-24T18:29:20.731Z,9.68
2022-09-24T18:31:51.577Z,9.95
2022-09-24T18:34:19.672Z,12.25
2022-09-24T18:36:48.625Z,13.45
2022-09-24T18:39:24.719Z,14.63
2022-09-24T18:41:53.646Z,14.73
2022-09-24T18:44:21.740Z,13.93
2022-09-24T18:46:50.182Z,14.02
2022-09-24T18:49:19.490Z,13.65
2022-09-24T18:51:47.649Z,15.63
2022-09-24T18:54:18.155Z,14.73
2022-09-24T18:56:47.166Z,13.32
2022-09-24T18:59:17.557Z,12.95
2022-09-24T19:01:47.768Z,14.30
2022-09-24T19:04:17.510Z,13.95
2022-09-24T19:06:48.761Z,12.75
2022-09-24T19:09:20.140Z,12.88
2022-09-24T19:11:49.502Z,10.35
2022-09-24T19:14:18.989Z,11.25
2022-09-24T19:16:48.857Z,12.68
2022-09-24T19:19:17.225Z,10.63
2022-09-24T19:21:51.378Z,10.20
2022-09-24T19:24:20.965Z,9.68
2022-09-24T19:26:49.460Z,9.85
2022-09-24T19:29:17.410Z,9.40
2022-09-24T19:31:48.789Z,10.60
2022-09-24T19:34:17.170Z,10.55
2022-09-24T19:36:45.632Z,10.52
2022-09-24T19:39:16.029Z,11.05
2022-09-24T19:41:45.904Z,13.05
2022-09-24T19:44:15.871Z,12.60
2022-09-24T19:46:44.357Z,13.07
2022-09-24T19:49:12.373Z,12.60
2022-09-24T19:51:40.773Z,13.13
2022-09-24T19:54:11.315Z,13.38
2022-09-24T19:56:40.006Z,12.18
2022-09-24T19:59:09.806Z,14.45
2022-09-24T20:01:38.080Z,12.50
2022-09-24T20:04:08.348Z,13.23
2022-09-24T20:06:37.968Z,11.43
2022-09-24T20:09:06.366Z,11.90
2022-09-24T20:11:34.610Z,11.13
2022-09-24T20:14:03.343Z,9.63
2022-09-24T20:16:33.670Z,11.88
2022-09-24T20:19:03.919Z,12.52
2022-09-24T20:21:36.835Z,10.50
2022-09-24T20:24:06.484Z,14.40
2022-09-24T20:26:51.718Z,11.50
2022-09-24T20:29:21.813Z,11.88
2022-09-24T20:31:53.639Z,11.15
2022-09-24T20:34:23.768Z,10.10
2022-09-24T20:36:52.269Z,10.15
2022-09-24T20:39:20.664Z,11.05
2022-09-24T20:41:50.179Z,10.82
2022-09-24T20:44:18.736Z,10.35
2022-09-24T20:46:46.676Z,10.55
2022-09-24T20:49:23.019Z,11.77
2022-09-24T20:51:56.207Z,11.68
2022-09-24T20:54:26.702Z,12.73
2022-09-24T20:56:54.944Z,12.48
2022-09-24T20:59:27.286Z,11.20
2022-09-24T21:01:56.306Z,9.25
2022-09-24T21:04:28.686Z,11.30
2022-09-24T21:06:56.733Z,10.13
2022-09-24T21:09:26.236Z,10.18
2022-09-24T21:11:54.740Z,9.90
2022-09-24T21:14:23.212Z,9.88
2022-09-24T21:16:55.176Z,7.50
2022-09-24T21:19:24.285Z,9.98
2022-09-24T21:21:57.683Z,8.30
2022-09-24T21:24:31.123Z,8.05
2022-09-24T21:27:00.261Z,8.35
2022-09-24T21:29:28.258Z,8.43
2022-09-24T21:31:58.173Z,7.72
2022-09-24T21:34:28.067Z,8.32
2022-09-24T21:36:57.377Z,8.15
2022-09-24T21:39:26.542Z,7.60
2022-09-24T21:41:55.773Z,7.97
2022-09-24T21:44:23.739Z,8.07
2022-09-24T21:46:52.330Z,6.53
2022-09-24T21:49:21.377Z,7.95
2022-09-24T21:51:49.360Z,7.95
2022-09-24T21:54:19.522Z,7.30
2022-09-24T21:56:48.878Z,7.50
2022-09-24T21:59:35.791Z,7.10
2022-09-24T22:02:04.629Z,7.90
2022-09-24T22:04:33.293Z,7.32
2022-09-24T22:07:01.483Z,7.38
2022-09-24T22:09:31.995Z,7.65
2022-09-24T22:12:01.084Z,5.78
2022-09-24T22:14:29.167Z,6.88
2022-09-24T22:16:59.628Z,7.38
2022-09-24T22:19:27.697Z,6.80
2022-09-24T22:21:55.717Z,6.78
2022-09-24T22:24:23.940Z,7.38
2022-09-24T22:26:53.994Z,6.18
2022-09-24T22:29:22.831Z,6.05
2022-09-24T22:31:50.898Z,6.93
2022-09-24T22:34:36.249Z,7.10
2022-09-24T22:37:08.034Z,6.53
2022-09-24T22:39:36.403Z,6.05
2022-09-24T22:42:05.969Z,5.38
2022-09-24T22:44:34.068Z,5.93
2022-09-24T22:47:02.094Z,5.15
2022-09-24T22:49:33.645Z,4.93
2022-09-24T22:52:02.062Z,4.68
2022-09-24T22:54:30.407Z,4.63
2022-09-24T22:56:58.378Z,4.47
2022-09-24T22:59:28.181Z,5.07
2022-09-24T23:01:57.318Z,4.55
2022-09-24T23:04:26.340Z,3.95
2022-09-24T23:06:54.414Z,4.13
2022-09-24T23:09:22.447Z,4.43
2022-09-24T23:11:50.489Z,4.03
2022-09-24T23:14:18.931Z,4.28
2022-09-24T23:16:48.342Z,4.47
2022-09-24T23:22:11.242Z,3.50
2022-09-24T23:24:39.896Z,4.55
2022-09-24T23:27:07.963Z,3.97
2022-09-24T23:29:36.318Z,4.30
2022-09-24T23:32:06.267Z,4.88
2022-09-24T23:34:34.282Z,5.55
2022-09-24T23:37:02.484Z,4.75
2022-09-24T23:39:30.523Z,5.57
2022-09-24T23:41:58.450Z,4.88
2022-09-24T23:44:26.558Z,4.68
2022-09-24T23:46:56.431Z,4.43
2022-09-24T23:49:26.245Z,3.85
2022-09-24T23:51:55.756Z,3.95
2022-09-24T23:54:24.063Z,4.10
2022-09-24T23:56:52.013Z,4.22
2022-09-24T23:59:20.180Z,4.43
